Time;durP1;ratioP1;P1;durP2;ratioP2;P2;SDS_P1;SDS_P2;PMS_P1;PMS_P2;Temp;Humidity;BMP_temperature;BMP_pressure;BME280_temperature;BME280_humidity;BME280_pressure;Samples;Min_cycle;Max_cycle;Signal;HPM_P1;HPM_P2
2022/03/07 00:00:48;;;;;;;;;57.25;47.00;;;;;8.13;42.26;101756.72;2122205;27;47492;-55
2022/03/07 00:01:49;;;;;;;;;57.80;48.00;;;;;8.12;42.29;101744.34;2114894;27;47396;-55
2022/03/07 00:02:49;;;;;;;;;57.20;48.40;;;;;8.12;42.15;101748.75;2121207;27;48126;-54
2022/03/07 00:03:50;;;;;;;;;61.25;50.00;;;;;8.11;42.26;101753.16;2121345;27;47561;-53
2022/03/07 00:04:50;;;;;;;;;61.25;49.25;;;;;8.10;42.28;101753.16;2121307;27;47329;-50
2022/03/07 00:05:51;;;;;;;;;60.75;48.75;;;;;8.08;42.30;101747.88;2120891;27;47801;-50
2022/03/07 00:06:51;;;;;;;;;62.75;50.00;;;;;8.08;42.41;101749.63;2117799;27;47254;-51
2022/03/07 00:07:52;;;;;;;;;63.75;52.00;;;;;8.07;42.30;101745.22;2112711;27;48053;-54
2022/03/07 00:08:52;;;;;;;;;57.75;49.50;;;;;8.05;42.38;101739.94;2112668;27;47641;-49
2022/03/07 00:09:53;;;;;;;;;55.75;45.50;;;;;8.04;42.24;101743.44;2103867;27;47235;-52
2022/03/07 00:10:53;;;;;;;;;58.75;48.25;;;;;8.03;42.43;101746.97;2103329;28;47118;-52
2022/03/07 00:11:54;;;;;;;;;60.25;49.75;;;;;8.01;42.54;101745.22;2116403;27;48318;-54
2022/03/07 00:12:54;;;;;;;;;62.50;50.50;;;;;7.99;42.45;101742.53;2116896;27;47789;-52
2022/03/07 00:13:55;;;;;;;;;57.25;48.00;;;;;7.98;42.58;101743.41;2113317;27;47937;-52
2022/03/07 00:14:55;;;;;;;;;57.00;47.50;;;;;7.97;42.40;101741.63;2113104;27;47533;-50
2022/03/07 00:15:55;;;;;;;;;58.25;49.00;;;;;7.97;42.53;101739.88;2113051;27;47931;-54
2022/03/07 00:16:56;;;;;;;;;58.00;48.00;;;;;7.96;42.47;101742.50;2113268;27;47648;-54
2022/03/07 00:17:56;;;;;;;;;61.25;49.00;;;;;7.94;42.79;101733.69;2112948;27;47772;-52
2022/03/07 00:18:58;;;;;;;;;54.50;44.50;;;;;7.94;42.51;101739.88;2112745;27;47742;-49
2022/03/07 00:19:58;;;;;;;;;54.00;46.20;;;;;7.94;42.47;101745.16;2118468;27;48199;-51
2022/03/07 00:20:58;;;;;;;;;59.50;48.25;;;;;7.93;42.65;101742.50;2120939;27;47945;-51
2022/03/07 00:21:59;;;;;;;;;55.00;45.25;;;;;7.92;42.44;101741.63;2113281;27;47771;-50
2022/03/07 00:22:59;;;;;;;;;55.00;45.75;;;;;7.92;42.80;101738.09;2113110;27;47634;-51
2022/03/07 00:24:00;;;;;;;;;55.00;46.75;;;;;7.89;42.51;101741.63;2113137;27;47455;-52
2022/03/07 00:25:00;;;;;;;;;54.75;46.50;;;;;7.89;42.48;101746.03;2119476;27;47510;-49
2022/03/07 00:26:01;;;;;;;;;57.00;48.75;;;;;7.88;42.83;101750.41;2120899;27;47613;-51
2022/03/07 00:27:04;;;;;;;;;57.25;46.50;;;;;7.88;42.83;101754.81;2115918;27;47856;-54
2022/03/07 00:28:05;;;;;;;;;54.20;44.60;;;;;7.88;42.70;101746.91;2112461;27;48040;-54
2022/03/07 00:29:06;;;;;;;;;60.20;48.80;;;;;7.87;42.73;101742.47;2116348;27;47079;-53
2022/03/07 00:30:07;;;;;;;;;58.75;47.00;;;;;7.87;42.91;101745.09;2112865;27;47997;-53
2022/03/07 00:31:08;;;;;;;;;56.60;47.40;;;;;7.86;42.94;101745.97;2113054;27;47665;-54
2022/03/07 00:32:08;;;;;;;;;55.75;45.00;;;;;7.86;42.90;101743.34;2115943;27;47845;-52
2022/03/07 00:33:08;;;;;;;;;57.25;47.00;;;;;7.86;42.92;101749.50;2103028;28;47742;-54
2022/03/07 00:34:09;;;;;;;;;63.25;50.25;;;;;7.85;42.73;101753.03;2112055;27;47712;-53
2022/03/07 00:35:10;;;;;;;;;56.75;47.25;;;;;7.84;42.96;101751.25;2118312;27;48257;-51
2022/03/07 00:36:10;;;;;;;;;56.00;48.00;;;;;7.83;42.80;101751.25;2120210;27;47225;-54
2022/03/07 00:37:11;;;;;;;;;53.25;44.75;;;;;7.82;42.83;101755.66;2120548;27;47686;-52
2022/03/07 00:38:11;;;;;;;;;54.50;46.00;;;;;7.81;42.87;101750.38;2117908;27;47426;-51
2022/03/07 00:39:12;;;;;;;;;60.25;48.25;;;;;7.82;42.80;101749.47;2112986;27;48222;-53
2022/03/07 00:40:12;;;;;;;;;55.75;46.50;;;;;7.81;42.68;101750.38;2113073;27;48178;-54
2022/03/07 00:41:13;;;;;;;;;62.00;49.00;;;;;7.81;42.90;101750.38;2112740;27;48031;-53
2022/03/07 00:42:13;;;;;;;;;61.75;49.75;;;;;7.82;43.12;101755.66;2113132;27;48030;-53
2022/03/07 00:43:14;;;;;;;;;55.25;46.25;;;;;7.82;42.78;101754.78;2112957;27;47779;-51
2022/03/07 00:44:14;;;;;;;;;56.00;47.25;;;;;7.82;42.87;101749.47;2113544;27;47813;-50
2022/03/07 00:45:15;;;;;;;;;54.75;45.75;;;;;7.81;42.79;101750.38;2113033;27;47636;-54
2022/03/07 00:46:15;;;;;;;;;56.75;47.75;;;;;7.79;42.97;101753.00;2119127;27;47944;-53
2022/03/07 00:47:15;;;;;;;;;53.50;42.00;;;;;7.79;43.16;101750.34;2121889;27;48159;-55
2022/03/07 00:48:17;;;;;;;;;56.75;46.00;;;;;7.77;42.90;101745.94;2121448;27;47971;-51
2022/03/07 00:49:17;;;;;;;;;60.00;48.00;;;;;7.76;43.10;101750.34;2121392;27;47669;-53
2022/03/07 00:50:18;;;;;;;;;51.75;43.50;;;;;7.77;43.24;101748.59;2121503;27;47466;-52
2022/03/07 00:51:18;;;;;;;;;56.25;45.00;;;;;7.77;42.97;101751.22;2120600;27;47610;-53
2022/03/07 00:52:19;;;;;;;;;56.75;47.75;;;;;7.76;42.91;101749.47;2121395;27;47670;-53
2022/03/07 00:53:25;;;;;;;;;57.50;49.25;;;;;7.76;43.16;101749.47;2120994;27;47443;-53
2022/03/07 00:54:26;;;;;;;;;59.80;45.80;;;;;7.76;43.01;101747.69;2120955;27;46603;-53
2022/03/07 00:55:26;;;;;;;;;57.50;45.75;;;;;7.75;42.82;101745.03;2121610;27;47155;-53
2022/03/07 00:56:27;;;;;;;;;52.50;45.00;;;;;7.74;42.90;101745.91;2119028;27;47825;-55
2022/03/07 00:57:27;;;;;;;;;56.00;45.75;;;;;7.73;42.75;101745.00;2112770;27;48001;-54
2022/03/07 00:58:28;;;;;;;;;55.50;47.50;;;;;7.73;42.90;101752.06;2113002;27;47966;-53
2022/03/07 00:59:28;;;;;;;;;48.50;41.75;;;;;7.73;42.88;101749.41;2112617;27;47092;-53
2022/03/07 01:00:28;;;;;;;;;56.25;46.00;;;;;7.71;43.09;101751.16;2115950;27;48084;-50
2022/03/07 01:01:29;;;;;;;;;53.00;45.00;;;;;7.70;43.26;101750.28;2118827;27;47245;-54
2022/03/07 01:02:29;;;;;;;;;56.75;46.75;;;;;7.70;43.13;101747.66;2121322;27;47573;-52
2022/03/07 01:03:30;;;;;;;;;57.75;47.00;;;;;7.70;43.27;101745.00;2129588;27;47597;-55
2022/03/07 01:04:30;;;;;;;;;54.00;45.25;;;;;7.70;43.02;101750.28;2129801;27;47974;-54
2022/03/07 01:05:31;;;;;;;;;52.50;44.50;;;;;7.70;43.08;101741.47;2129911;27;47706;-51
2022/03/07 01:06:31;;;;;;;;;53.25;46.00;;;;;7.70;43.18;101741.47;2124035;27;47579;-53
2022/03/07 01:07:32;;;;;;;;;56.75;47.25;;;;;7.70;43.11;101744.13;2121235;27;47492;-52
2022/03/07 01:08:32;;;;;;;;;57.50;46.75;;;;;7.68;43.25;101747.63;2121525;27;47357;-50
2022/03/07 01:09:33;;;;;;;;;56.50;46.75;;;;;7.68;43.12;101747.63;2121191;27;47651;-51
2022/03/07 01:10:34;;;;;;;;;55.50;46.00;;;;;7.69;43.40;101748.53;2121434;27;47687;-54
2022/03/07 01:11:35;;;;;;;;;56.60;48.00;;;;;7.67;43.05;101745.88;2121215;27;47749;-54
2022/03/07 01:12:36;;;;;;;;;54.40;44.40;;;;;7.67;43.26;101751.16;2121072;27;47680;-54
2022/03/07 01:13:36;;;;;;;;;55.75;45.50;;;;;7.67;43.23;101748.50;2121322;27;47925;-54
2022/03/07 01:14:37;;;;;;;;;54.50;45.75;;;;;7.66;43.29;101746.75;2121406;27;47071;-52
2022/03/07 01:15:37;;;;;;;;;49.25;41.75;;;;;7.65;43.24;101745.00;2121108;27;47640;-53
2022/03/07 01:16:38;;;;;;;;;56.00;43.75;;;;;7.64;43.41;101744.97;2121040;27;48097;-54
2022/03/07 01:17:38;;;;;;;;;55.75;45.25;;;;;7.62;43.24;101746.69;2121775;27;47704;-50
2022/03/07 01:18:39;;;;;;;;;53.00;44.00;;;;;7.61;43.20;101744.94;2129911;27;47281;-54
2022/03/07 01:19:39;;;;;;;;;45.25;40.25;;;;;7.60;43.38;101749.34;2122699;27;47312;-54
2022/03/07 01:20:39;;;;;;;;;56.50;45.00;;;;;7.59;43.20;101747.56;2121450;27;47790;-52
2022/03/07 01:21:40;;;;;;;;;54.50;46.50;;;;;7.59;43.44;101738.75;2121016;27;47974;-53
2022/03/07 01:22:43;;;;;;;;;51.25;43.75;;;;;7.58;43.64;101742.28;2121121;27;47575;-54
2022/03/07 01:23:44;;;;;;;;;59.20;47.00;;;;;7.58;43.22;101740.53;2121280;27;47143;-54
2022/03/07 01:24:44;;;;;;;;;56.25;44.50;;;;;7.57;43.44;101733.47;2124895;27;47640;-52
2022/03/07 01:25:44;;;;;;;;;51.00;43.75;;;;;7.56;43.46;101738.75;2116338;27;47608;-51
2022/03/07 01:26:46;;;;;;;;;52.75;43.50;;;;;7.56;43.45;101741.38;2112011;27;47235;-51
2022/03/07 01:27:46;;;;;;;;;55.00;45.00;;;;;7.56;43.52;101741.38;2121242;27;47699;-52
2022/03/07 01:28:47;;;;;;;;;53.00;45.00;;;;;7.55;43.46;101744.91;2126461;27;47210;-54
2022/03/07 01:29:47;;;;;;;;;53.25;44.00;;;;;7.53;43.57;101744.00;2125555;27;47902;-53
2022/03/07 01:30:48;;;;;;;;;52.75;43.25;;;;;7.51;43.38;101735.19;2121105;27;47232;-56
2022/03/07 01:31:49;;;;;;;;;54.00;45.80;;;;;7.50;43.40;101733.44;2128184;27;47604;-53
2022/03/07 01:32:52;;;;;;;;;51.25;44.00;;;;;7.49;43.38;101743.09;2120691;27;47619;-54
2022/03/07 01:33:52;;;;;;;;;49.40;41.00;;;;;7.49;43.47;101742.19;2121288;27;48438;-52
2022/03/07 01:34:53;;;;;;;;;54.00;44.00;;;;;7.45;43.21;101740.44;2127069;27;47527;-51
2022/03/07 01:35:53;;;;;;;;;51.75;43.50;;;;;7.45;43.60;101741.31;2128354;27;47694;-52
2022/03/07 01:36:54;;;;;;;;;55.50;45.00;;;;;7.44;43.67;101733.38;2115873;27;48197;-50
2022/03/07 01:37:54;;;;;;;;;49.75;44.00;;;;;7.42;43.58;101736.00;2122118;27;47415;-51
2022/03/07 01:38:54;;;;;;;;;51.00;42.50;;;;;7.42;43.47;101741.28;2121697;27;47851;-52
2022/03/07 01:39:55;;;;;;;;;55.25;46.50;;;;;7.41;43.54;101736.00;2121953;27;45854;-52
2022/03/07 01:40:56;;;;;;;;;56.75;45.00;;;;;7.40;43.63;101735.13;2131378;27;47801;-52
2022/03/07 01:41:56;;;;;;;;;47.50;40.50;;;;;7.39;43.38;101733.34;2131399;27;47661;-53
2022/03/07 01:42:56;;;;;;;;;53.50;44.50;;;;;7.38;43.44;101736.88;2131315;27;47859;-53
2022/03/07 01:43:57;;;;;;;;;53.50;44.00;;;;;7.37;43.44;101735.09;2131500;27;48078;-51
2022/03/07 01:45:09;;;;;;;;;47.25;40.50;;;;;7.34;43.74;101735.94;2131199;27;47412;-53
2022/03/07 01:46:09;;;;;;;;;51.80;43.80;;;;;7.32;43.62;101735.03;2116503;27;47633;-54
2022/03/07 01:47:10;;;;;;;;;50.75;41.75;;;;;7.32;43.63;101731.53;2110763;27;47110;-55
2022/03/07 01:48:11;;;;;;;;;54.00;45.00;;;;;7.30;43.83;101733.28;2121966;27;48325;-54
2022/03/07 01:49:11;;;;;;;;;47.75;42.00;;;;;7.30;43.69;101730.63;2126306;27;47745;-52
2022/03/07 01:50:15;;;;;;;;;53.75;44.50;;;;;7.28;43.75;101727.97;2125159;27;47366;-51
2022/03/07 01:51:17;;;;;;;;;52.60;43.00;;;;;7.29;43.81;101732.38;2126498;27;48314;-52
2022/03/07 01:52:18;;;;;;;;;53.00;43.40;;;;;7.27;43.93;101727.97;2125950;27;47598;-53
2022/03/07 01:53:21;;;;;;;;;51.20;42.40;;;;;7.26;43.87;101727.09;2095766;28;48294;-54
2022/03/07 01:54:22;;;;;;;;;52.40;42.40;;;;;7.26;43.77;101729.72;2104759;27;47503;-54
2022/03/07 01:55:23;;;;;;;;;50.40;42.60;;;;;7.26;43.97;101736.78;2128103;27;48413;-52
2022/03/07 01:56:23;;;;;;;;;52.50;43.50;;;;;7.25;43.53;101729.72;2122533;27;47365;-52
2022/03/07 01:57:24;;;;;;;;;56.00;45.50;;;;;7.23;43.56;101729.69;2122561;27;47559;-54
2022/03/07 01:58:25;;;;;;;;;48.75;40.50;;;;;7.24;43.51;101728.84;2122601;27;47266;-53
2022/03/07 01:59:27;;;;;;;;;54.00;43.50;;;;;7.23;43.79;101728.81;2126766;27;47550;-51
2022/03/07 02:00:28;;;;;;;;;54.00;44.40;;;;;7.23;43.84;101728.81;2130944;27;47705;-53
2022/03/07 02:01:28;;;;;;;;;51.00;44.25;;;;;7.21;43.79;101726.16;2130991;27;47205;-52
2022/03/07 02:02:29;;;;;;;;;54.00;45.00;;;;;7.20;44.16;101719.09;2130864;27;46157;-52
2022/03/07 02:03:29;;;;;;;;;54.50;44.25;;;;;7.19;43.86;101719.09;2131230;27;47967;-53
2022/03/07 02:04:30;;;;;;;;;53.00;44.00;;;;;7.19;43.93;101719.09;2115975;27;47565;-53
2022/03/07 02:05:31;;;;;;;;;49.00;41.75;;;;;7.19;43.94;101713.81;2113255;27;47426;-55
2022/03/07 02:06:32;;;;;;;;;48.75;41.50;;;;;7.18;44.02;101720.84;2122498;27;47505;-51
2022/03/07 02:07:32;;;;;;;;;47.80;39.80;;;;;7.18;43.88;101719.97;2126726;27;48176;-51
2022/03/07 02:08:33;;;;;;;;;50.75;41.50;;;;;7.18;43.56;101722.63;2129894;27;47348;-53
2022/03/07 02:09:34;;;;;;;;;53.75;45.25;;;;;7.18;44.05;101714.69;2122548;27;48052;-54
2022/03/07 02:10:35;;;;;;;;;48.50;40.25;;;;;7.16;43.94;101719.09;2122365;27;47709;-54
2022/03/07 02:11:37;;;;;;;;;52.60;42.80;;;;;7.18;43.64;101717.34;2131127;27;47508;-55
2022/03/07 02:12:38;;;;;;;;;51.80;44.40;;;;;7.17;43.94;101723.47;2130573;27;47985;-53
2022/03/07 02:13:38;;;;;;;;;46.00;39.00;;;;;7.16;43.87;101717.31;2130814;27;48046;-55
2022/03/07 02:14:39;;;;;;;;;53.75;43.50;;;;;7.15;44.03;101709.41;2126210;27;47392;-51
2022/03/07 02:15:39;;;;;;;;;52.00;41.75;;;;;7.12;43.98;101707.63;2122247;27;47232;-52
2022/03/07 02:16:40;;;;;;;;;54.00;42.50;;;;;7.12;43.90;101707.63;2122343;27;47949;-54
2022/03/07 02:17:44;;;;;;;;;54.00;42.60;;;;;7.11;43.84;101704.94;2122500;27;47824;-50
2022/03/07 02:18:45;;;;;;;;;52.40;41.80;;;;;7.11;43.98;101707.59;2126192;27;48224;-54
2022/03/07 02:19:45;;;;;;;;;54.50;45.00;;;;;7.09;43.74;101697.91;2131280;27;47735;-55
2022/03/07 02:20:46;;;;;;;;;52.75;44.50;;;;;7.08;43.95;101705.81;2130900;27;47821;-54
2022/03/07 02:21:49;;;;;;;;;45.50;37.00;;;;;7.07;44.11;101704.91;2131024;27;47908;-54
2022/03/07 02:22:49;;;;;;;;;53.20;44.00;;;;;7.06;43.92;101703.16;2125821;27;48084;-55
2022/03/07 02:23:50;;;;;;;;;49.75;42.75;;;;;7.05;44.00;101704.03;2121925;27;47617;-54
2022/03/07 02:24:50;;;;;;;;;55.00;43.50;;;;;7.05;44.20;101700.50;2125283;27;47745;-54
2022/03/07 02:25:51;;;;;;;;;56.25;44.25;;;;;7.04;44.30;101699.63;2125120;27;47356;-53
2022/03/07 02:26:59;;;;;;;;;53.75;43.00;;;;;7.03;43.94;101694.34;2130833;27;47616;-52
2022/03/07 02:28:00;;;;;;;;;52.00;44.60;;;;;7.03;43.89;101697.84;2125157;27;47480;-52
2022/03/07 02:29:01;;;;;;;;;47.75;41.25;;;;;7.02;43.95;101700.50;2122109;27;47702;-55
2022/03/07 02:30:05;;;;;;;;;45.00;39.25;;;;;7.03;44.23;101696.97;2122280;27;48152;-50
2022/03/07 02:31:05;;;;;;;;;42.80;36.60;;;;;7.01;43.86;101688.16;2122690;27;47267;-52
2022/03/07 02:32:07;;;;;;;;;50.00;42.00;;;;;7.01;44.37;101691.69;2122372;27;48084;-52
2022/03/07 02:33:12;;;;;;;;;42.20;37.00;;;;;7.01;44.05;101693.44;2122304;27;48144;-55
2022/03/07 02:34:13;;;;;;;;;49.20;41.80;;;;;7.00;43.79;101692.56;2122452;27;47852;-49
2022/03/07 02:35:14;;;;;;;;;50.75;43.00;;;;;7.01;44.34;101701.38;2122858;27;47271;-54
2022/03/07 02:36:14;;;;;;;;;51.60;43.60;;;;;6.98;44.23;101696.91;2131382;27;47867;-54
2022/03/07 02:37:15;;;;;;;;;53.50;45.00;;;;;6.97;44.04;101692.50;2126778;27;47102;-54
2022/03/07 02:38:16;;;;;;;;;48.50;41.50;;;;;6.97;44.00;101691.63;2122725;27;47652;-53
2022/03/07 02:39:17;;;;;;;;;53.50;44.25;;;;;6.96;44.21;101690.75;2122257;27;47665;-53
2022/03/07 02:40:19;;;;;;;;;50.60;41.40;;;;;6.96;44.12;101688.09;2122371;27;47183;-53
2022/03/07 02:41:20;;;;;;;;;49.60;40.60;;;;;6.95;44.35;101691.63;2122368;27;48073;-54
2022/03/07 02:42:20;;;;;;;;;48.50;40.75;;;;;6.94;43.98;101676.66;2122338;27;47339;-55
2022/03/07 02:43:21;;;;;;;;;47.00;38.75;;;;;6.95;44.30;101685.47;2128223;27;47449;-55
2022/03/07 02:44:22;;;;;;;;;48.75;41.00;;;;;6.95;44.40;101685.47;2122394;27;48261;-54
2022/03/07 02:45:22;;;;;;;;;51.40;43.40;;;;;6.94;44.30;101681.06;2121058;27;47678;-53
2022/03/07 02:46:23;;;;;;;;;51.25;42.00;;;;;6.94;44.26;101679.31;2121738;27;48092;-53
2022/03/07 02:47:23;;;;;;;;;39.75;37.25;;;;;6.93;44.26;101680.19;2130962;27;47663;-54
2022/03/07 02:48:25;;;;;;;;;55.25;43.50;;;;;6.92;44.03;101677.53;2129432;27;47892;-54
2022/03/07 02:49:25;;;;;;;;;51.60;43.60;;;;;6.91;44.35;101681.03;2130741;27;47558;-52
2022/03/07 02:50:26;;;;;;;;;55.75;44.50;;;;;6.89;44.39;101678.38;2130746;27;47759;-53
2022/03/07 02:51:26;;;;;;;;;53.50;42.75;;;;;6.89;44.53;101682.78;2124977;27;47749;-55
2022/03/07 02:52:27;;;;;;;;;42.00;38.25;;;;;6.87;44.25;101680.13;2128990;27;47782;-52
2022/03/07 02:53:27;;;;;;;;;54.50;42.25;;;;;6.87;44.17;101679.25;2113070;27;47624;-52
2022/03/07 02:54:28;;;;;;;;;47.75;42.00;;;;;6.87;44.41;101671.34;2118013;27;47622;-54
2022/03/07 02:55:29;;;;;;;;;52.25;42.25;;;;;6.87;44.32;101669.59;2128888;27;47516;-52
2022/03/07 02:56:29;;;;;;;;;43.80;37.60;;;;;6.86;44.31;101673.09;2122385;27;47677;-53
2022/03/07 02:57:30;;;;;;;;;52.25;38.50;;;;;6.86;44.14;101670.47;2126647;27;47436;-51
2022/03/07 02:58:30;;;;;;;;;49.25;42.75;;;;;6.86;44.33;101673.09;2122190;27;47497;-55
2022/03/07 02:59:31;;;;;;;;;51.25;41.00;;;;;6.86;44.43;101669.53;2122346;27;48265;-55
2022/03/07 03:00:32;;;;;;;;;43.50;39.50;;;;;6.85;44.23;101678.31;2128369;27;47249;-51
2022/03/07 03:01:33;;;;;;;;;48.20;39.80;;;;;6.83;44.33;101673.03;2122874;27;47658;-55
2022/03/07 03:02:33;;;;;;;;;49.00;41.00;;;;;6.82;44.42;101673.03;2122100;27;47633;-52
2022/03/07 03:03:34;;;;;;;;;43.50;40.00;;;;;6.81;44.46;101673.91;2122283;27;47054;-53
2022/03/07 03:04:34;;;;;;;;;49.25;42.00;;;;;6.80;44.14;101667.75;2122124;27;47264;-54
2022/03/07 03:05:35;;;;;;;;;49.50;40.25;;;;;6.78;44.22;101673.00;2107632;27;48095;-50
2022/03/07 03:06:36;;;;;;;;;55.00;45.25;;;;;6.78;44.49;101661.56;2095474;28;45696;-51
2022/03/07 03:07:36;;;;;;;;;55.50;43.00;;;;;6.76;44.14;101673.88;2112567;27;47252;-52
2022/03/07 03:08:37;;;;;;;;;52.50;42.00;;;;;6.74;44.18;101673.88;2128405;27;47552;-54
2022/03/07 03:09:37;;;;;;;;;38.25;35.25;;;;;6.73;44.16;101668.53;2122234;27;47842;-53
2022/03/07 03:10:38;;;;;;;;;52.00;42.00;;;;;6.73;44.52;101671.19;2121921;27;48075;-56
2022/03/07 03:11:38;;;;;;;;;44.75;38.75;;;;;6.72;44.24;101672.06;2122318;27;47818;-51
2022/03/07 03:12:39;;;;;;;;;44.25;38.25;;;;;6.72;44.42;101672.94;2122170;27;47666;-53
2022/03/07 03:13:39;;;;;;;;;44.25;39.00;;;;;6.71;44.23;101673.81;2122062;27;48064;-52
2022/03/07 03:14:40;;;;;;;;;51.75;43.50;;;;;6.71;44.57;101671.16;2122193;27;47443;-54
2022/03/07 03:15:40;;;;;;;;;48.75;40.50;;;;;6.69;44.81;101670.28;2111165;27;47500;-54
2022/03/07 03:16:41;;;;;;;;;49.75;41.00;;;;;6.68;44.26;101665.88;2103585;28;47636;-54
2022/03/07 03:17:42;;;;;;;;;46.50;40.25;;;;;6.67;44.24;101668.50;2119111;27;47012;-53
2022/03/07 03:18:42;;;;;;;;;46.00;40.75;;;;;6.66;44.32;101664.09;2123640;27;47816;-53
2022/03/07 03:19:43;;;;;;;;;45.25;40.00;;;;;6.65;44.50;101660.59;2124161;27;47514;-52
2022/03/07 03:20:45;;;;;;;;;46.25;38.50;;;;;6.65;44.32;101668.50;2122327;27;47405;-53
2022/03/07 03:21:46;;;;;;;;;48.60;41.20;;;;;6.64;44.63;101663.22;2122258;27;47432;-53
2022/03/07 03:22:46;;;;;;;;;49.50;41.75;;;;;6.63;44.31;101666.72;2122062;27;46674;-50
2022/03/07 03:23:49;;;;;;;;;50.50;42.25;;;;;6.62;44.42;101667.59;2121940;27;48189;-51
2022/03/07 03:24:50;;;;;;;;;47.20;37.80;;;;;6.62;44.16;101667.59;2123586;27;47752;-54
2022/03/07 03:25:50;;;;;;;;;48.00;39.75;;;;;6.60;44.67;101658.75;2121731;27;47570;-51
2022/03/07 03:26:51;;;;;;;;;42.75;38.25;;;;;6.60;44.45;101664.91;2122197;27;48286;-51
2022/03/07 03:27:51;;;;;;;;;44.75;39.25;;;;;6.59;44.36;101657.88;2121928;27;48048;-50
2022/03/07 03:28:52;;;;;;;;;46.50;40.75;;;;;6.60;44.54;101658.75;2127704;27;47325;-53
2022/03/07 03:29:52;;;;;;;;;48.75;41.00;;;;;6.59;44.85;101659.63;2130323;27;47702;-54
2022/03/07 03:30:53;;;;;;;;;44.50;39.25;;;;;6.59;44.62;101656.97;2130646;27;47618;-50
2022/03/07 03:31:53;;;;;;;;;49.75;39.75;;;;;6.58;44.51;101658.75;2128810;27;47222;-54
2022/03/07 03:32:54;;;;;;;;;41.75;37.50;;;;;6.58;44.71;101661.38;2095188;28;48288;-54
2022/03/07 03:33:54;;;;;;;;;47.75;39.75;;;;;6.57;44.81;101662.25;2092934;28;47001;-54
2022/03/07 03:34:55;;;;;;;;;46.75;39.75;;;;;6.56;44.54;101657.84;2121210;27;47629;-53
2022/03/07 03:35:55;;;;;;;;;50.50;42.75;;;;;6.55;44.58;101663.09;2116801;27;47359;-54
2022/03/07 03:36:56;;;;;;;;;49.00;39.25;;;;;6.54;44.54;101661.34;2121246;27;47548;-53
2022/03/07 03:37:57;;;;;;;;;40.25;38.00;;;;;6.53;44.99;101663.09;2126072;27;47874;-52
2022/03/07 03:38:57;;;;;;;;;49.60;39.20;;;;;6.52;45.07;101656.06;2122154;27;47376;-54
2022/03/07 03:39:58;;;;;;;;;45.00;41.25;;;;;6.52;44.87;101663.97;2121790;27;47843;-53
2022/03/07 03:40:58;;;;;;;;;46.75;40.00;;;;;6.52;45.05;101657.81;2122000;27;47941;-54
2022/03/07 03:41:59;;;;;;;;;47.00;39.75;;;;;6.51;44.90;101664.84;2121747;27;48493;-53
2022/03/07 03:42:59;;;;;;;;;45.75;40.50;;;;;6.52;45.02;101665.72;2124308;27;47198;-54
2022/03/07 03:44:00;;;;;;;;;46.25;38.50;;;;;6.51;44.85;101661.31;2130251;27;45938;-54
2022/03/07 03:45:00;;;;;;;;;48.50;41.25;;;;;6.50;44.45;101663.06;2130390;27;47809;-54
2022/03/07 03:46:00;;;;;;;;;45.00;37.75;;;;;6.51;44.63;101666.59;2130307;27;47630;-55
2022/03/07 03:47:02;;;;;;;;;50.00;42.75;;;;;6.47;44.99;101671.81;2130755;27;47739;-55
2022/03/07 03:48:02;;;;;;;;;43.20;38.00;;;;;6.47;44.81;101671.81;2121016;27;47475;-53
2022/03/07 03:49:03;;;;;;;;;42.50;37.75;;;;;6.47;44.74;101676.19;2121370;27;47470;-54
2022/03/07 03:50:06;;;;;;;;;46.20;38.60;;;;;6.46;44.74;101677.97;2130508;27;47812;-52
2022/03/07 03:51:06;;;;;;;;;47.60;39.80;;;;;6.46;45.02;101677.06;2110451;27;47175;-51
2022/03/07 03:52:07;;;;;;;;;48.25;41.50;;;;;6.46;44.95;101671.81;2112229;27;47543;-51
2022/03/07 03:53:08;;;;;;;;;51.25;42.00;;;;;6.44;44.91;101670.91;2123390;27;47110;-52
2022/03/07 03:54:08;;;;;;;;;47.25;41.00;;;;;6.43;44.71;101677.94;2123703;27;47511;-53
2022/03/07 03:55:11;;;;;;;;;44.00;39.00;;;;;6.42;44.70;101670.91;2130338;27;47718;-52
2022/03/07 03:56:11;;;;;;;;;43.60;38.60;;;;;6.41;44.90;101666.50;2124250;27;47413;-53
2022/03/07 03:57:12;;;;;;;;;46.00;39.75;;;;;6.40;44.63;101674.38;2121868;27;47697;-54
2022/03/07 03:58:12;;;;;;;;;48.00;41.75;;;;;6.40;44.49;101674.38;2122037;27;47790;-54
2022/03/07 03:59:13;;;;;;;;;45.50;40.00;;;;;6.38;44.52;101677.00;2121629;27;47545;-55
2022/03/07 04:00:16;;;;;;;;;43.00;38.25;;;;;6.39;44.77;101670.00;2121136;27;47866;-52
2022/03/07 04:01:17;;;;;;;;;50.20;39.00;;;;;6.37;44.84;101669.97;2112355;27;47439;-52
2022/03/07 04:02:17;;;;;;;;;44.50;40.25;;;;;6.38;44.97;101665.59;2112717;27;48009;-50
2022/03/07 04:03:17;;;;;;;;;46.25;41.25;;;;;6.37;44.78;101672.59;2122043;27;47295;-52
2022/03/07 04:04:18;;;;;;;;;46.50;40.00;;;;;6.37;44.89;101672.59;2121662;27;47783;-53
2022/03/07 04:05:18;;;;;;;;;42.75;38.25;;;;;6.37;45.00;101669.97;2121788;27;47708;-54
2022/03/07 04:06:19;;;;;;;;;43.75;38.00;;;;;6.37;44.92;101674.38;2121950;27;47643;-55
2022/03/07 04:07:19;;;;;;;;;47.75;40.75;;;;;6.36;45.20;101673.47;2121746;27;47474;-51
2022/03/07 04:08:20;;;;;;;;;46.00;39.50;;;;;6.36;45.26;101672.59;2128877;27;47357;-53
2022/03/07 04:09:21;;;;;;;;;43.25;38.00;;;;;6.36;45.38;101680.50;2122035;27;47865;-52
2022/03/07 04:10:22;;;;;;;;;44.00;37.80;;;;;6.36;45.08;101676.13;2119166;27;47675;-54
2022/03/07 04:11:22;;;;;;;;;50.75;40.75;;;;;6.36;44.82;101678.75;2121777;27;47151;-50
2022/03/07 04:12:23;;;;;;;;;49.00;41.00;;;;;6.36;45.35;101673.47;2127482;27;48257;-51
2022/03/07 04:13:23;;;;;;;;;51.00;40.75;;;;;6.37;44.87;101675.25;2128877;27;47854;-52
2022/03/07 04:14:24;;;;;;;;;48.25;41.00;;;;;6.36;44.76;101677.88;2121657;27;47628;-54
2022/03/07 04:15:25;;;;;;;;;47.00;40.50;;;;;6.35;45.10;101681.34;2121430;27;47592;-50
2022/03/07 04:16:26;;;;;;;;;42.80;39.20;;;;;6.34;45.42;101671.66;2121882;27;47832;-50
2022/03/07 04:17:26;;;;;;;;;43.75;39.75;;;;;6.33;44.82;101675.19;2121723;27;47543;-50
2022/03/07 04:18:27;;;;;;;;;44.75;39.25;;;;;6.34;45.19;101676.94;2121725;27;47903;-53
2022/03/07 04:19:27;;;;;;;;;41.50;37.50;;;;;6.32;45.30;101678.69;2121318;27;47582;-53
2022/03/07 04:20:28;;;;;;;;;39.25;38.00;;;;;6.31;44.88;101677.81;2121936;27;48087;-53
2022/03/07 04:21:28;;;;;;;;;44.50;40.25;;;;;6.31;44.80;101677.81;2121587;27;47374;-55
2022/03/07 04:22:29;;;;;;;;;43.50;38.00;;;;;6.31;45.06;101675.16;2112795;27;47269;-51
2022/03/07 04:23:29;;;;;;;;;42.00;38.25;;;;;6.32;45.00;101676.94;2116918;27;47661;-53
2022/03/07 04:24:30;;;;;;;;;46.00;38.75;;;;;6.30;45.13;101675.16;2129738;27;47690;-53
2022/03/07 04:25:33;;;;;;;;;43.40;38.20;;;;;6.29;45.06;101679.53;2111411;27;46940;-52
2022/03/07 04:26:34;;;;;;;;;46.20;39.80;;;;;6.29;45.13;101674.28;2112628;27;47916;-51
2022/03/07 04:27:35;;;;;;;;;48.00;39.75;;;;;6.28;45.49;101676.88;2130337;27;47371;-52
2022/03/07 04:28:36;;;;;;;;;45.40;41.20;;;;;6.26;45.56;101673.34;2130329;27;47430;-53
2022/03/07 04:29:36;;;;;;;;;43.50;37.25;;;;;6.25;45.06;101674.22;2126762;27;47537;-54
2022/03/07 04:30:36;;;;;;;;;49.75;41.00;;;;;6.24;45.29;101675.09;2121449;27;47723;-52
2022/03/07 04:31:39;;;;;;;;;46.50;41.00;;;;;6.23;45.25;101676.84;2121974;27;45404;-52
2022/03/07 04:32:40;;;;;;;;;46.80;40.40;;;;;6.23;45.00;101679.47;2121666;27;47620;-52
2022/03/07 04:33:41;;;;;;;;;44.60;38.80;;;;;6.22;45.71;101674.16;2121522;27;46391;-54
2022/03/07 04:34:41;;;;;;;;;46.75;41.00;;;;;6.22;45.29;101677.69;2121376;27;47732;-54
2022/03/07 04:35:42;;;;;;;;;45.00;39.50;;;;;6.22;45.68;101680.31;2121794;27;48367;-51
2022/03/07 04:36:42;;;;;;;;;53.00;42.25;;;;;6.20;45.23;101677.66;2121474;27;47497;-56
2022/03/07 04:37:43;;;;;;;;;47.25;39.00;;;;;6.20;45.24;101675.03;2121659;27;47472;-52
2022/03/07 04:38:43;;;;;;;;;35.75;34.75;;;;;6.20;45.27;101675.03;2121529;27;48247;-50
2022/03/07 04:39:44;;;;;;;;;44.00;39.50;;;;;6.20;45.67;101677.66;2121547;27;47488;-51